sensor_id;sensor_type;location;lat;lon;timestamp;P1;durP1;ratioP1;P2;durP2;ratioP2
36709;SDS011;22694;51.040;3.684;2023-02-01T00:01:42;5.13;;;1.83;;
36709;SDS011;22694;51.040;3.684;2023-02-01T00:04:08;5.05;;;2.15;;
36709;SDS011;22694;51.040;3.684;2023-02-01T00:06:33;4.75;;;2.13;;
36709;SDS011;22694;51.040;3.684;2023-02-01T00:08:59;4.80;;;2.40;;
36709;SDS011;22694;51.040;3.684;2023-02-01T00:11:25;6.15;;;2.10;;
36709;SDS011;22694;51.040;3.684;2023-02-01T00:13:50;4.82;;;2.40;;
36709;SDS011;22694;51.040;3.684;2023-02-01T00:16:18;4.88;;;1.80;;
36709;SDS011;22694;51.040;3.684;2023-02-01T00:18:46;5.65;;;2.08;;
36709;SDS011;22694;51.040;3.684;2023-02-01T00:21:14;3.55;;;1.95;;
36709;SDS011;22694;51.040;3.684;2023-02-01T00:23:41;4.32;;;1.70;;
36709;SDS011;22694;51.040;3.684;2023-02-01T00:26:08;5.28;;;2.53;;
36709;SDS011;22694;51.040;3.684;2023-02-01T00:28:41;4.60;;;2.05;;
36709;SDS011;22694;51.040;3.684;2023-02-01T00:31:06;5.57;;;2.20;;
36709;SDS011;22694;51.040;3.684;2023-02-01T00:33:33;5.22;;;1.90;;
36709;SDS011;22694;51.040;3.684;2023-02-01T00:35:59;3.10;;;1.77;;
36709;SDS011;22694;51.040;3.684;2023-02-01T00:38:27;5.80;;;1.75;;
36709;SDS011;22694;51.040;3.684;2023-02-01T00:40:53;3.38;;;1.95;;
36709;SDS011;22694;51.040;3.684;2023-02-01T00:43:19;3.67;;;2.13;;
36709;SDS011;22694;51.040;3.684;2023-02-01T00:45:46;5.13;;;2.35;;
36709;SDS011;22694;51.040;3.684;2023-02-01T00:48:12;6.13;;;2.22;;
36709;SDS011;22694;51.040;3.684;2023-02-01T00:50:41;5.38;;;2.00;;
36709;SDS011;22694;51.040;3.684;2023-02-01T00:53:08;3.90;;;2.05;;
36709;SDS011;22694;51.040;3.684;2023-02-01T00:55:34;9.00;;;2.35;;
36709;SDS011;22694;51.040;3.684;2023-02-01T00:58:00;6.57;;;2.17;;
36709;SDS011;22694;51.040;3.684;2023-02-01T01:00:26;5.13;;;1.95;;
36709;SDS011;22694;51.040;3.684;2023-02-01T01:02:51;4.28;;;2.00;;
36709;SDS011;22694;51.040;3.684;2023-02-01T01:05:17;4.75;;;1.98;;
36709;SDS011;22694;51.040;3.684;2023-02-01T01:07:42;6.30;;;2.15;;
36709;SDS011;22694;51.040;3.684;2023-02-01T01:10:08;3.80;;;1.77;;
36709;SDS011;22694;51.040;3.684;2023-02-01T01:12:34;4.80;;;2.35;;
36709;SDS011;22694;51.040;3.684;2023-02-01T01:15:00;6.03;;;2.15;;
36709;SDS011;22694;51.040;3.684;2023-02-01T01:17:26;4.65;;;2.08;;
36709;SDS011;22694;51.040;3.684;2023-02-01T01:19:51;5.78;;;1.88;;
36709;SDS011;22694;51.040;3.684;2023-02-01T01:22:17;4.25;;;1.52;;
36709;SDS011;22694;51.040;3.684;2023-02-01T01:24:43;5.35;;;1.90;;
36709;SDS011;22694;51.040;3.684;2023-02-01T01:27:09;5.03;;;1.70;;
36709;SDS011;22694;51.040;3.684;2023-02-01T01:29:34;6.43;;;2.22;;
36709;SDS011;22694;51.040;3.684;2023-02-01T01:32:00;3.88;;;1.65;;
36709;SDS011;22694;51.040;3.684;2023-02-01T01:34:25;4.95;;;1.70;;
36709;SDS011;22694;51.040;3.684;2023-02-01T01:36:51;5.35;;;2.03;;
36709;SDS011;22694;51.040;3.684;2023-02-01T01:39:17;6.38;;;2.03;;
36709;SDS011;22694;51.040;3.684;2023-02-01T01:41:42;4.45;;;1.83;;
36709;SDS011;22694;51.040;3.684;2023-02-01T01:47:11;4.35;;;1.77;;
36709;SDS011;22694;51.040;3.684;2023-02-01T01:49:39;4.72;;;2.10;;
36709;SDS011;22694;51.040;3.684;2023-02-01T01:52:05;4.28;;;1.80;;
36709;SDS011;22694;51.040;3.684;2023-02-01T01:54:36;5.13;;;1.95;;
36709;SDS011;22694;51.040;3.684;2023-02-01T01:57:09;3.75;;;1.60;;
36709;SDS011;22694;51.040;3.684;2023-02-01T01:59:48;4.95;;;1.95;;
36709;SDS011;22694;51.040;3.684;2023-02-01T02:02:21;5.03;;;1.65;;
36709;SDS011;22694;51.040;3.684;2023-02-01T02:04:46;4.72;;;2.03;;
36709;SDS011;22694;51.040;3.684;2023-02-01T02:07:14;6.50;;;2.03;;
36709;SDS011;22694;51.040;3.684;2023-02-01T02:09:44;4.87;;;1.90;;
36709;SDS011;22694;51.040;3.684;2023-02-01T02:12:11;7.35;;;2.30;;
36709;SDS011;22694;51.040;3.684;2023-02-01T02:14:36;6.07;;;2.00;;
36709;SDS011;22694;51.040;3.684;2023-02-01T02:36:08;4.28;;;1.60;;
36709;SDS011;22694;51.040;3.684;2023-02-01T02:38:57;4.38;;;2.10;;
36709;SDS011;22694;51.040;3.684;2023-02-01T02:44:44;5.57;;;2.05;;
36709;SDS011;22694;51.040;3.684;2023-02-01T02:47:33;6.90;;;2.17;;
36709;SDS011;22694;51.040;3.684;2023-02-01T02:53:07;3.95;;;1.45;;
36709;SDS011;22694;51.040;3.684;2023-02-01T02:55:58;6.47;;;2.15;;
36709;SDS011;22694;51.040;3.684;2023-02-01T02:58:43;4.18;;;1.65;;
36709;SDS011;22694;51.040;3.684;2023-02-01T03:01:29;4.43;;;1.70;;
36709;SDS011;22694;51.040;3.684;2023-02-01T03:04:14;5.95;;;1.67;;
36709;SDS011;22694;51.040;3.684;2023-02-01T03:06:42;4.40;;;1.70;;
36709;SDS011;22694;51.040;3.684;2023-02-01T03:09:26;6.50;;;2.28;;
36709;SDS011;22694;51.040;3.684;2023-02-01T03:11:58;5.82;;;1.60;;
36709;SDS011;22694;51.040;3.684;2023-02-01T03:14:46;6.38;;;1.60;;
36709;SDS011;22694;51.040;3.684;2023-02-01T03:17:17;4.60;;;1.83;;
36709;SDS011;22694;51.040;3.684;2023-02-01T03:19:48;7.13;;;1.90;;
36709;SDS011;22694;51.040;3.684;2023-02-01T03:22:18;6.03;;;1.90;;
36709;SDS011;22694;51.040;3.684;2023-02-01T03:24:49;4.57;;;1.80;;
36709;SDS011;22694;51.040;3.684;2023-02-01T03:27:23;6.03;;;2.13;;
36709;SDS011;22694;51.040;3.684;2023-02-01T03:32:26;7.25;;;2.20;;
36709;SDS011;22694;51.040;3.684;2023-02-01T03:34:53;5.40;;;2.20;;
36709;SDS011;22694;51.040;3.684;2023-02-01T03:37:26;5.78;;;2.33;;
36709;SDS011;22694;51.040;3.684;2023-02-01T03:42:34;6.70;;;2.13;;
36709;SDS011;22694;51.040;3.684;2023-02-01T03:45:10;4.68;;;1.92;;
36709;SDS011;22694;51.040;3.684;2023-02-01T03:50:27;6.75;;;1.50;;
36709;SDS011;22694;51.040;3.684;2023-02-01T03:52:56;6.30;;;2.05;;
36709;SDS011;22694;51.040;3.684;2023-02-01T03:55:28;6.20;;;1.95;;
36709;SDS011;22694;51.040;3.684;2023-02-01T04:00:55;6.13;;;1.85;;
36709;SDS011;22694;51.040;3.684;2023-02-01T04:03:22;4.65;;;1.83;;
36709;SDS011;22694;51.040;3.684;2023-02-01T04:05:50;5.43;;;1.65;;
36709;SDS011;22694;51.040;3.684;2023-02-01T04:08:17;4.63;;;2.03;;
36709;SDS011;22694;51.040;3.684;2023-02-01T04:10:44;6.85;;;2.05;;
36709;SDS011;22694;51.040;3.684;2023-02-01T04:13:09;4.93;;;1.63;;
36709;SDS011;22694;51.040;3.684;2023-02-01T04:15:35;6.32;;;2.20;;
36709;SDS011;22694;51.040;3.684;2023-02-01T04:18:01;5.13;;;1.90;;
36709;SDS011;22694;51.040;3.684;2023-02-01T04:20:27;5.38;;;2.13;;
36709;SDS011;22694;51.040;3.684;2023-02-01T04:22:53;6.80;;;1.80;;
36709;SDS011;22694;51.040;3.684;2023-02-01T04:25:18;6.28;;;2.08;;
36709;SDS011;22694;51.040;3.684;2023-02-01T04:27:44;6.50;;;2.22;;
36709;SDS011;22694;51.040;3.684;2023-02-01T04:30:10;7.45;;;2.20;;
36709;SDS011;22694;51.040;3.684;2023-02-01T04:32:37;3.95;;;1.85;;
36709;SDS011;22694;51.040;3.684;2023-02-01T04:35:04;5.25;;;1.80;;
36709;SDS011;22694;51.040;3.684;2023-02-01T04:37:30;4.20;;;1.75;;
36709;SDS011;22694;51.040;3.684;2023-02-01T04:39:55;7.10;;;1.75;;
36709;SDS011;22694;51.040;3.684;2023-02-01T04:42:21;7.65;;;2.35;;
36709;SDS011;22694;51.040;3.684;2023-02-01T04:44:47;6.78;;;1.92;;
36709;SDS011;22694;51.040;3.684;2023-02-01T04:47:12;5.85;;;1.90;;
36709;SDS011;22694;51.040;3.684;2023-02-01T04:49:39;3.97;;;2.00;;
36709;SDS011;22694;51.040;3.684;2023-02-01T04:52:05;5.53;;;2.60;;
36709;SDS011;22694;51.040;3.684;2023-02-01T04:54:30;5.05;;;1.83;;
36709;SDS011;22694;51.040;3.684;2023-02-01T04:56:56;6.72;;;2.33;;
36709;SDS011;22694;51.040;3.684;2023-02-01T04:59:22;6.28;;;2.10;;
36709;SDS011;22694;51.040;3.684;2023-02-01T05:01:47;7.68;;;2.28;;
36709;SDS011;22694;51.040;3.684;2023-02-01T05:04:13;7.30;;;1.85;;
36709;SDS011;22694;51.040;3.684;2023-02-01T05:06:38;6.07;;;1.95;;
36709;SDS011;22694;51.040;3.684;2023-02-01T05:09:06;7.93;;;2.42;;
36709;SDS011;22694;51.040;3.684;2023-02-01T05:11:31;5.80;;;1.88;;
36709;SDS011;22694;51.040;3.684;2023-02-01T05:14:16;5.63;;;1.90;;
36709;SDS011;22694;51.040;3.684;2023-02-01T05:16:41;7.53;;;2.45;;
36709;SDS011;22694;51.040;3.684;2023-02-01T05:19:07;6.68;;;1.83;;
36709;SDS011;22694;51.040;3.684;2023-02-01T05:21:33;5.68;;;1.83;;
36709;SDS011;22694;51.040;3.684;2023-02-01T05:23:58;4.38;;;1.65;;
36709;SDS011;22694;51.040;3.684;2023-02-01T05:26:42;4.65;;;1.60;;
36709;SDS011;22694;51.040;3.684;2023-02-01T05:29:10;5.20;;;2.13;;
36709;SDS011;22694;51.040;3.684;2023-02-01T05:31:36;4.20;;;1.58;;
36709;SDS011;22694;51.040;3.684;2023-02-01T05:34:02;3.78;;;1.35;;
36709;SDS011;22694;51.040;3.684;2023-02-01T05:36:28;5.22;;;1.48;;
36709;SDS011;22694;51.040;3.684;2023-02-01T05:38:54;2.88;;;1.40;;
36709;SDS011;22694;51.040;3.684;2023-02-01T05:41:19;3.80;;;1.50;;
36709;SDS011;22694;51.040;3.684;2023-02-01T05:43:45;4.72;;;1.60;;
36709;SDS011;22694;51.040;3.684;2023-02-01T05:46:11;4.82;;;1.73;;
36709;SDS011;22694;51.040;3.684;2023-02-01T05:48:38;7.10;;;2.22;;
36709;SDS011;22694;51.040;3.684;2023-02-01T05:51:04;5.60;;;2.20;;
36709;SDS011;22694;51.040;3.684;2023-02-01T05:53:30;6.15;;;2.00;;
36709;SDS011;22694;51.040;3.684;2023-02-01T05:55:56;6.85;;;2.13;;
36709;SDS011;22694;51.040;3.684;2023-02-01T05:58:21;4.65;;;1.92;;
36709;SDS011;22694;51.040;3.684;2023-02-01T06:00:47;5.32;;;1.88;;
36709;SDS011;22694;51.040;3.684;2023-02-01T06:03:12;5.55;;;2.20;;
36709;SDS011;22694;51.040;3.684;2023-02-01T06:05:38;6.30;;;2.00;;
36709;SDS011;22694;51.040;3.684;2023-02-01T06:08:04;8.75;;;1.95;;
36709;SDS011;22694;51.040;3.684;2023-02-01T06:10:29;7.05;;;2.17;;
36709;SDS011;22694;51.040;3.684;2023-02-01T06:12:55;7.63;;;2.45;;
36709;SDS011;22694;51.040;3.684;2023-02-01T06:15:21;6.57;;;1.98;;
36709;SDS011;22694;51.040;3.684;2023-02-01T06:17:46;7.65;;;2.28;;
36709;SDS011;22694;51.040;3.684;2023-02-01T06:20:12;7.25;;;2.17;;
36709;SDS011;22694;51.040;3.684;2023-02-01T06:22:39;7.50;;;2.00;;
36709;SDS011;22694;51.040;3.684;2023-02-01T06:25:06;5.85;;;1.70;;
36709;SDS011;22694;51.040;3.684;2023-02-01T06:27:34;9.05;;;2.15;;
36709;SDS011;22694;51.040;3.684;2023-02-01T06:29:59;7.43;;;1.95;;
36709;SDS011;22694;51.040;3.684;2023-02-01T06:32:25;7.47;;;2.38;;
36709;SDS011;22694;51.040;3.684;2023-02-01T06:34:50;7.38;;;2.38;;
36709;SDS011;22694;51.040;3.684;2023-02-01T06:37:20;7.07;;;2.17;;
36709;SDS011;22694;51.040;3.684;2023-02-01T06:39:48;9.77;;;2.10;;
36709;SDS011;22694;51.040;3.684;2023-02-01T06:42:14;7.97;;;2.30;;
36709;SDS011;22694;51.040;3.684;2023-02-01T06:44:40;7.57;;;2.05;;
36709;SDS011;22694;51.040;3.684;2023-02-01T06:47:05;6.47;;;2.05;;
36709;SDS011;22694;51.040;3.684;2023-02-01T06:49:31;6.80;;;2.33;;
36709;SDS011;22694;51.040;3.684;2023-02-01T06:51:57;6.30;;;2.38;;
36709;SDS011;22694;51.040;3.684;2023-02-01T06:54:25;5.72;;;2.33;;
36709;SDS011;22694;51.040;3.684;2023-02-01T06:56:54;8.05;;;2.40;;
36709;SDS011;22694;51.040;3.684;2023-02-01T06:59:20;5.65;;;2.08;;
36709;SDS011;22694;51.040;3.684;2023-02-01T07:01:45;6.55;;;2.30;;
36709;SDS011;22694;51.040;3.684;2023-02-01T07:04:11;7.53;;;2.67;;
36709;SDS011;22694;51.040;3.684;2023-02-01T07:06:37;5.60;;;2.03;;
36709;SDS011;22694;51.040;3.684;2023-02-01T07:09:04;6.70;;;1.92;;
36709;SDS011;22694;51.040;3.684;2023-02-01T07:11:30;8.43;;;2.25;;
36709;SDS011;22694;51.040;3.684;2023-02-01T07:13:56;8.57;;;2.35;;
36709;SDS011;22694;51.040;3.684;2023-02-01T07:16:22;7.30;;;2.50;;
36709;SDS011;22694;51.040;3.684;2023-02-01T07:18:49;6.20;;;2.25;;
36709;SDS011;22694;51.040;3.684;2023-02-01T07:21:16;7.78;;;2.10;;
36709;SDS011;22694;51.040;3.684;2023-02-01T07:23:41;9.40;;;2.42;;
36709;SDS011;22694;51.040;3.684;2023-02-01T07:26:07;7.68;;;2.05;;
36709;SDS011;22694;51.040;3.684;2023-02-01T07:28:38;8.30;;;2.65;;
36709;SDS011;22694;51.040;3.684;2023-02-01T07:31:04;8.00;;;2.10;;
36709;SDS011;22694;51.040;3.684;2023-02-01T07:33:31;8.35;;;2.60;;
36709;SDS011;22694;51.040;3.684;2023-02-01T07:35:57;6.65;;;2.08;;
36709;SDS011;22694;51.040;3.684;2023-02-01T07:38:26;7.10;;;2.25;;
36709;SDS011;22694;51.040;3.684;2023-02-01T07:40:56;7.38;;;2.17;;
36709;SDS011;22694;51.040;3.684;2023-02-01T07:43:23;6.55;;;2.20;;
36709;SDS011;22694;51.040;3.684;2023-02-01T07:45:52;7.85;;;2.33;;
36709;SDS011;22694;51.040;3.684;2023-02-01T07:48:20;6.82;;;2.10;;
36709;SDS011;22694;51.040;3.684;2023-02-01T07:50:46;6.07;;;2.15;;
36709;SDS011;22694;51.040;3.684;2023-02-01T07:53:12;8.38;;;2.28;;
36709;SDS011;22694;51.040;3.684;2023-02-01T07:55:38;8.00;;;2.03;;
36709;SDS011;22694;51.040;3.684;2023-02-01T07:58:04;6.80;;;2.08;;
36709;SDS011;22694;51.040;3.684;2023-02-01T08:00:30;8.70;;;2.28;;
36709;SDS011;22694;51.040;3.684;2023-02-01T08:03:14;5.55;;;1.88;;
36709;SDS011;22694;51.040;3.684;2023-02-01T08:05:40;7.63;;;2.20;;
36709;SDS011;22694;51.040;3.684;2023-02-01T08:08:06;5.88;;;2.10;;
36709;SDS011;22694;51.040;3.684;2023-02-01T08:10:32;7.88;;;2.70;;
36709;SDS011;22694;51.040;3.684;2023-02-01T08:12:59;7.53;;;2.53;;
36709;SDS011;22694;51.040;3.684;2023-02-01T08:15:26;7.90;;;2.00;;
36709;SDS011;22694;51.040;3.684;2023-02-01T08:17:52;5.55;;;1.98;;
36709;SDS011;22694;51.040;3.684;2023-02-01T08:20:19;7.07;;;2.10;;
36709;SDS011;22694;51.040;3.684;2023-02-01T08:22:50;5.72;;;2.40;;
36709;SDS011;22694;51.040;3.684;2023-02-01T08:25:15;7.43;;;2.17;;
36709;SDS011;22694;51.040;3.684;2023-02-01T08:27:41;6.38;;;2.03;;
36709;SDS011;22694;51.040;3.684;2023-02-01T08:30:07;7.35;;;2.15;;
36709;SDS011;22694;51.040;3.684;2023-02-01T08:32:33;6.35;;;2.30;;
36709;SDS011;22694;51.040;3.684;2023-02-01T08:35:00;4.63;;;1.80;;
36709;SDS011;22694;51.040;3.684;2023-02-01T08:37:26;7.85;;;2.47;;
36709;SDS011;22694;51.040;3.684;2023-02-01T08:39:52;7.07;;;1.75;;
36709;SDS011;22694;51.040;3.684;2023-02-01T08:42:17;6.50;;;1.83;;
36709;SDS011;22694;51.040;3.684;2023-02-01T08:45:02;9.68;;;1.58;;
36709;SDS011;22694;51.040;3.684;2023-02-01T08:47:29;7.35;;;1.83;;
36709;SDS011;22694;51.040;3.684;2023-02-01T08:49:55;9.82;;;2.42;;
36709;SDS011;22694;51.040;3.684;2023-02-01T08:52:21;7.03;;;2.10;;
36709;SDS011;22694;51.040;3.684;2023-02-01T08:54:47;6.57;;;2.15;;
36709;SDS011;22694;51.040;3.684;2023-02-01T08:57:12;5.07;;;1.65;;
36709;SDS011;22694;51.040;3.684;2023-02-01T08:59:38;6.13;;;1.63;;
36709;SDS011;22694;51.040;3.684;2023-02-01T09:02:04;6.95;;;1.75;;
36709;SDS011;22694;51.040;3.684;2023-02-01T09:04:29;7.57;;;1.83;;
36709;SDS011;22694;51.040;3.684;2023-02-01T09:06:55;6.22;;;1.60;;
36709;SDS011;22694;51.040;3.684;2023-02-01T09:09:21;5.50;;;1.73;;
36709;SDS011;22694;51.040;3.684;2023-02-01T09:11:47;6.68;;;1.63;;
36709;SDS011;22694;51.040;3.684;2023-02-01T09:14:15;5.53;;;1.75;;
36709;SDS011;22694;51.040;3.684;2023-02-01T09:16:41;4.40;;;1.48;;
36709;SDS011;22694;51.040;3.684;2023-02-01T09:19:06;6.03;;;2.10;;
36709;SDS011;22694;51.040;3.684;2023-02-01T09:21:32;5.97;;;1.85;;
36709;SDS011;22694;51.040;3.684;2023-02-01T09:23:58;7.35;;;1.90;;
36709;SDS011;22694;51.040;3.684;2023-02-01T09:26:23;7.30;;;2.20;;
36709;SDS011;22694;51.040;3.684;2023-02-01T09:28:50;5.53;;;2.00;;
36709;SDS011;22694;51.040;3.684;2023-02-01T09:31:16;7.60;;;2.50;;
36709;SDS011;22694;51.040;3.684;2023-02-01T09:33:42;5.72;;;2.38;;
36709;SDS011;22694;51.040;3.684;2023-02-01T09:36:07;6.30;;;1.80;;
36709;SDS011;22694;51.040;3.684;2023-02-01T09:38:33;5.93;;;1.90;;
36709;SDS011;22694;51.040;3.684;2023-02-01T09:41:00;4.68;;;1.65;;
36709;SDS011;22694;51.040;3.684;2023-02-01T09:46:22;4.78;;;1.83;;
36709;SDS011;22694;51.040;3.684;2023-02-01T09:48:55;5.60;;;1.88;;
36709;SDS011;22694;51.040;3.684;2023-02-01T09:51:27;6.25;;;1.80;;
36709;SDS011;22694;51.040;3.684;2023-02-01T09:54:09;4.35;;;1.63;;
36709;SDS011;22694;51.040;3.684;2023-02-01T09:59:18;7.10;;;1.75;;
36709;SDS011;22694;51.040;3.684;2023-02-01T10:01:55;5.75;;;1.55;;
36709;SDS011;22694;51.040;3.684;2023-02-01T10:04:22;6.40;;;1.80;;
36709;SDS011;22694;51.040;3.684;2023-02-01T10:17:35;6.00;;;1.90;;
36709;SDS011;22694;51.040;3.684;2023-02-01T10:20:16;6.15;;;1.92;;
36709;SDS011;22694;51.040;3.684;2023-02-01T10:25:55;4.15;;;1.55;;
36709;SDS011;22694;51.040;3.684;2023-02-01T10:28:25;9.20;;;2.92;;
36709;SDS011;22694;51.040;3.684;2023-02-01T10:30:52;5.43;;;1.55;;
36709;SDS011;22694;51.040;3.684;2023-02-01T10:33:23;5.43;;;1.60;;
36709;SDS011;22694;51.040;3.684;2023-02-01T10:35:54;5.72;;;1.75;;
36709;SDS011;22694;51.040;3.684;2023-02-01T10:38:27;5.10;;;1.67;;
36709;SDS011;22694;51.040;3.684;2023-02-01T10:40:55;8.15;;;1.88;;
36709;SDS011;22694;51.040;3.684;2023-02-01T10:43:42;3.67;;;1.50;;
36709;SDS011;22694;51.040;3.684;2023-02-01T10:46:09;6.15;;;2.15;;
36709;SDS011;22694;51.040;3.684;2023-02-01T10:48:36;6.07;;;2.08;;
36709;SDS011;22694;51.040;3.684;2023-02-01T10:51:07;5.05;;;1.63;;
36709;SDS011;22694;51.040;3.684;2023-02-01T10:56:26;5.30;;;1.83;;
36709;SDS011;22694;51.040;3.684;2023-02-01T10:58:59;6.43;;;1.75;;
36709;SDS011;22694;51.040;3.684;2023-02-01T11:01:31;7.00;;;1.88;;
36709;SDS011;22694;51.040;3.684;2023-02-01T11:04:13;6.03;;;1.58;;
36709;SDS011;22694;51.040;3.684;2023-02-01T11:06:45;9.90;;;2.63;;
36709;SDS011;22694;51.040;3.684;2023-02-01T11:09:20;8.32;;;2.20;;
36709;SDS011;22694;51.040;3.684;2023-02-01T11:14:26;11.10;;;2.60;;
36709;SDS011;22694;51.040;3.684;2023-02-01T11:16:58;10.13;;;2.15;;
36709;SDS011;22694;51.040;3.684;2023-02-01T11:19:25;7.22;;;1.80;;
36709;SDS011;22694;51.040;3.684;2023-02-01T11:21:52;7.90;;;2.22;;
36709;SDS011;22694;51.040;3.684;2023-02-01T11:24:23;6.55;;;1.95;;
36709;SDS011;22694;51.040;3.684;2023-02-01T11:26:53;8.43;;;2.20;;
36709;SDS011;22694;51.040;3.684;2023-02-01T11:31:55;8.25;;;2.47;;
36709;SDS011;22694;51.040;3.684;2023-02-01T11:34:24;6.55;;;2.08;;
36709;SDS011;22694;51.040;3.684;2023-02-01T11:36:53;9.85;;;3.00;;
36709;SDS011;22694;51.040;3.684;2023-02-01T11:39:26;9.90;;;2.63;;
36709;SDS011;22694;51.040;3.684;2023-02-01T11:42:11;7.72;;;2.60;;
36709;SDS011;22694;51.040;3.684;2023-02-01T11:44:39;7.00;;;2.40;;
36709;SDS011;22694;51.040;3.684;2023-02-01T11:47:24;7.68;;;2.33;;
36709;SDS011;22694;51.040;3.684;2023-02-01T11:50:00;9.27;;;2.25;;
36709;SDS011;22694;51.040;3.684;2023-02-01T12:06:51;5.75;;;1.98;;
36709;SDS011;22694;51.040;3.684;2023-02-01T12:11:55;7.45;;;1.70;;
36709;SDS011;22694;51.040;3.684;2023-02-01T12:25:24;3.65;;;1.10;;
36709;SDS011;22694;51.040;3.684;2023-02-01T12:42:03;6.20;;;1.85;;
36709;SDS011;22694;51.040;3.684;2023-02-01T12:50:01;4.10;;;1.42;;
36709;SDS011;22694;51.040;3.684;2023-02-01T12:52:32;3.92;;;1.45;;
36709;SDS011;22694;51.040;3.684;2023-02-01T12:55:09;7.00;;;1.98;;
36709;SDS011;22694;51.040;3.684;2023-02-01T12:57:43;7.50;;;1.95;;
36709;SDS011;22694;51.040;3.684;2023-02-01T13:00:23;4.40;;;1.50;;
36709;SDS011;22694;51.040;3.684;2023-02-01T13:03:02;5.30;;;1.65;;
36709;SDS011;22694;51.040;3.684;2023-02-01T13:05:51;5.57;;;1.50;;
36709;SDS011;22694;51.040;3.684;2023-02-01T13:08:26;4.50;;;1.77;;
36709;SDS011;22694;51.040;3.684;2023-02-01T13:11:10;5.93;;;1.50;;
36709;SDS011;22694;51.040;3.684;2023-02-01T13:16:23;3.85;;;1.40;;
36709;SDS011;22694;51.040;3.684;2023-02-01T13:19:28;4.32;;;1.83;;
36709;SDS011;22694;51.040;3.684;2023-02-01T13:22:13;7.18;;;1.70;;
36709;SDS011;22694;51.040;3.684;2023-02-01T13:27:26;7.05;;;1.52;;
36709;SDS011;22694;51.040;3.684;2023-02-01T13:35:28;5.15;;;1.88;;
36709;SDS011;22694;51.040;3.684;2023-02-01T13:43:06;6.85;;;1.98;;
36709;SDS011;22694;51.040;3.684;2023-02-01T13:45:35;4.82;;;1.55;;
36709;SDS011;22694;51.040;3.684;2023-02-01T13:48:14;5.85;;;1.52;;
36709;SDS011;22694;51.040;3.684;2023-02-01T13:50:57;5.18;;;1.23;;
36709;SDS011;22694;51.040;3.684;2023-02-01T13:53:28;4.55;;;1.77;;
36709;SDS011;22694;51.040;3.684;2023-02-01T13:58:37;3.90;;;1.58;;
36709;SDS011;22694;51.040;3.684;2023-02-01T14:03:46;4.18;;;1.33;;
36709;SDS011;22694;51.040;3.684;2023-02-01T14:06:15;4.30;;;1.45;;
36709;SDS011;22694;51.040;3.684;2023-02-01T14:16:41;3.70;;;1.42;;
36709;SDS011;22694;51.040;3.684;2023-02-01T14:19:18;6.10;;;1.63;;
36709;SDS011;22694;51.040;3.684;2023-02-01T14:21:48;3.25;;;1.50;;
36709;SDS011;22694;51.040;3.684;2023-02-01T14:24:29;2.80;;;1.00;;
36709;SDS011;22694;51.040;3.684;2023-02-01T14:26:59;3.50;;;1.30;;
36709;SDS011;22694;51.040;3.684;2023-02-01T14:29:41;2.35;;;1.15;;
36709;SDS011;22694;51.040;3.684;2023-02-01T14:32:22;3.55;;;1.00;;
36709;SDS011;22694;51.040;3.684;2023-02-01T14:34:53;3.78;;;1.23;;
36709;SDS011;22694;51.040;3.684;2023-02-01T14:37:30;3.25;;;1.13;;
36709;SDS011;22694;51.040;3.684;2023-02-01T14:47:48;2.40;;;0.85;;
36709;SDS011;22694;51.040;3.684;2023-02-01T14:55:37;1.25;;;0.80;;
36709;SDS011;22694;51.040;3.684;2023-02-01T15:01:03;2.30;;;0.80;;
36709;SDS011;22694;51.040;3.684;2023-02-01T15:09:15;3.00;;;1.48;;
36709;SDS011;22694;51.040;3.684;2023-02-01T15:14:33;3.55;;;0.98;;
36709;SDS011;22694;51.040;3.684;2023-02-01T15:17:18;2.38;;;1.00;;
36709;SDS011;22694;51.040;3.684;2023-02-01T15:22:21;2.85;;;1.30;;
36709;SDS011;22694;51.040;3.684;2023-02-01T15:24:56;3.30;;;1.20;;
36709;SDS011;22694;51.040;3.684;2023-02-01T15:27:24;4.03;;;1.20;;
36709;SDS011;22694;51.040;3.684;2023-02-01T15:29:50;2.55;;;0.95;;
36709;SDS011;22694;51.040;3.684;2023-02-01T15:32:50;4.47;;;1.17;;
36709;SDS011;22694;51.040;3.684;2023-02-01T15:38:18;9.80;;;1.98;;
36709;SDS011;22694;51.040;3.684;2023-02-01T15:43:28;3.67;;;1.20;;
36709;SDS011;22694;51.040;3.684;2023-02-01T15:46:01;6.05;;;1.77;;
36709;SDS011;22694;51.040;3.684;2023-02-01T15:48:52;2.85;;;1.00;;
36709;SDS011;22694;51.040;3.684;2023-02-01T15:51:20;3.42;;;1.20;;
36709;SDS011;22694;51.040;3.684;2023-02-01T15:53:49;3.22;;;1.35;;
36709;SDS011;22694;51.040;3.684;2023-02-01T15:56:21;3.95;;;1.50;;
36709;SDS011;22694;51.040;3.684;2023-02-01T15:58:50;4.97;;;1.48;;
36709;SDS011;22694;51.040;3.684;2023-02-01T16:03:47;2.47;;;1.08;;
36709;SDS011;22694;51.040;3.684;2023-02-01T16:08:54;4.65;;;1.30;;
36709;SDS011;22694;51.040;3.684;2023-02-01T16:13:55;4.18;;;1.27;;
36709;SDS011;22694;51.040;3.684;2023-02-01T16:16:22;2.40;;;1.20;;
36709;SDS011;22694;51.040;3.684;2023-02-01T16:18:47;1.75;;;0.85;;
36709;SDS011;22694;51.040;3.684;2023-02-01T16:21:13;3.70;;;1.30;;
36709;SDS011;22694;51.040;3.684;2023-02-01T16:23:39;3.90;;;1.48;;
36709;SDS011;22694;51.040;3.684;2023-02-01T16:26:04;1.85;;;0.98;;
36709;SDS011;22694;51.040;3.684;2023-02-01T16:28:31;4.57;;;1.30;;
36709;SDS011;22694;51.040;3.684;2023-02-01T16:30:57;4.00;;;1.20;;
36709;SDS011;22694;51.040;3.684;2023-02-01T16:33:23;3.53;;;1.38;;
36709;SDS011;22694;51.040;3.684;2023-02-01T16:35:49;3.50;;;1.20;;
36709;SDS011;22694;51.040;3.684;2023-02-01T16:38:17;3.30;;;1.77;;
36709;SDS011;22694;51.040;3.684;2023-02-01T16:40:46;3.90;;;1.20;;
36709;SDS011;22694;51.040;3.684;2023-02-01T16:43:13;2.45;;;1.10;;
36709;SDS011;22694;51.040;3.684;2023-02-01T16:45:44;3.17;;;1.20;;
36709;SDS011;22694;51.040;3.684;2023-02-01T16:48:16;3.28;;;1.40;;
36709;SDS011;22694;51.040;3.684;2023-02-01T16:50:54;5.68;;;1.35;;
36709;SDS011;22694;51.040;3.684;2023-02-01T16:53:22;3.92;;;1.40;;
36709;SDS011;22694;51.040;3.684;2023-02-01T16:55:49;3.35;;;1.27;;
36709;SDS011;22694;51.040;3.684;2023-02-01T16:58:17;4.18;;;1.65;;
36709;SDS011;22694;51.040;3.684;2023-02-01T17:00:43;4.45;;;1.38;;
36709;SDS011;22694;51.040;3.684;2023-02-01T17:03:10;3.75;;;1.42;;
36709;SDS011;22694;51.040;3.684;2023-02-01T17:05:41;4.38;;;1.30;;
36709;SDS011;22694;51.040;3.684;2023-02-01T17:08:12;3.80;;;1.67;;
36709;SDS011;22694;51.040;3.684;2023-02-01T17:10:44;3.00;;;1.35;;
36709;SDS011;22694;51.040;3.684;2023-02-01T17:13:14;4.97;;;1.70;;
36709;SDS011;22694;51.040;3.684;2023-02-01T17:15:42;6.88;;;2.17;;
36709;SDS011;22694;51.040;3.684;2023-02-01T17:18:14;6.90;;;2.30;;
36709;SDS011;22694;51.040;3.684;2023-02-01T17:20:41;5.50;;;1.80;;
36709;SDS011;22694;51.040;3.684;2023-02-01T17:23:08;6.85;;;2.33;;
36709;SDS011;22694;51.040;3.684;2023-02-01T17:25:34;5.88;;;1.83;;
36709;SDS011;22694;51.040;3.684;2023-02-01T17:28:00;7.20;;;2.00;;
36709;SDS011;22694;51.040;3.684;2023-02-01T17:30:25;5.57;;;2.00;;
36709;SDS011;22694;51.040;3.684;2023-02-01T17:32:51;5.32;;;1.77;;
36709;SDS011;22694;51.040;3.684;2023-02-01T17:35:18;5.10;;;1.92;;
36709;SDS011;22694;51.040;3.684;2023-02-01T17:37:46;6.68;;;2.00;;
36709;SDS011;22694;51.040;3.684;2023-02-01T17:40:12;6.78;;;2.15;;
36709;SDS011;22694;51.040;3.684;2023-02-01T17:42:38;6.78;;;1.92;;
36709;SDS011;22694;51.040;3.684;2023-02-01T17:45:14;6.45;;;2.10;;
36709;SDS011;22694;51.040;3.684;2023-02-01T17:47:41;6.18;;;1.98;;
36709;SDS011;22694;51.040;3.684;2023-02-01T17:50:07;5.35;;;1.77;;
36709;SDS011;22694;51.040;3.684;2023-02-01T17:52:33;5.20;;;1.50;;
36709;SDS011;22694;51.040;3.684;2023-02-01T17:55:00;9.88;;;2.65;;
36709;SDS011;22694;51.040;3.684;2023-02-01T17:57:27;4.43;;;1.67;;
36709;SDS011;22694;51.040;3.684;2023-02-01T17:59:53;6.53;;;2.05;;
36709;SDS011;22694;51.040;3.684;2023-02-01T18:02:22;8.90;;;2.38;;
36709;SDS011;22694;51.040;3.684;2023-02-01T18:04:49;6.55;;;2.30;;